createdAt,value
2017-08-01T00:00:27.421Z,89.46
2017-08-01T00:02:55.036Z,89.17
2017-08-01T00:05:22.721Z,89.21
2017-08-01T00:07:50.331Z,88.97
2017-08-01T00:10:17.936Z,89.30
2017-08-01T00:12:45.618Z,89.15
2017-08-01T00:15:13.237Z,89.27
2017-08-01T00:17:40.860Z,89.39
2017-08-01T00:20:08.558Z,89.67
2017-08-01T00:22:36.194Z,89.67
2017-08-01T00:25:03.825Z,89.54
2017-08-01T00:27:31.549Z,89.88
2017-08-01T00:29:59.175Z,90.12
2017-08-01T00:32:26.804Z,90.03
2017-08-01T00:34:54.817Z,89.39
2017-08-01T00:37:22.685Z,90.03
2017-08-01T00:39:50.414Z,90.37
2017-08-01T00:42:18.402Z,90.09
2017-08-01T00:44:46.083Z,90.13
2017-08-01T00:47:13.892Z,90.56
2017-08-01T00:49:41.607Z,90.56
2017-08-01T00:52:09.681Z,90.64
2017-08-01T00:54:37.417Z,90.14
2017-08-01T00:57:05.410Z,90.18
2017-08-01T00:59:33.229Z,90.37
2017-08-01T01:02:01.149Z,90.67
2017-08-01T01:04:29.215Z,91.03
2017-08-01T01:06:57.024Z,91.17
2017-08-01T01:09:24.654Z,90.86
2017-08-01T01:11:52.312Z,90.97
2017-08-01T01:14:19.952Z,90.77
2017-08-01T01:16:47.791Z,90.24
2017-08-01T01:19:15.663Z,89.80
2017-08-01T01:21:43.527Z,89.13
2017-08-01T01:24:11.514Z,89.37
2017-08-01T01:26:39.195Z,90.28
2017-08-01T01:29:06.867Z,89.83
2017-08-01T01:31:34.537Z,89.54
2017-08-01T01:34:02.204Z,88.48
2017-08-01T01:36:29.817Z,88.61
2017-08-01T01:38:57.425Z,88.54
2017-08-01T01:41:25.105Z,88.68
2017-08-01T01:43:52.732Z,89.03
2017-08-01T01:46:20.349Z,89.20
2017-08-01T01:48:48.039Z,89.71
2017-08-01T01:51:15.684Z,89.94
2017-08-01T01:53:43.314Z,89.65
2017-08-01T01:56:12.137Z,90.26
2017-08-01T01:58:39.882Z,89.74
2017-08-01T02:01:07.894Z,89.59
2017-08-01T02:03:35.978Z,88.82
2017-08-01T02:06:03.613Z,88.62
2017-08-01T02:08:31.239Z,87.95
2017-08-01T02:10:58.938Z,88.66
2017-08-01T02:13:26.571Z,88.56
2017-08-01T02:15:54.200Z,88.62
2017-08-01T02:18:21.881Z,89.17
2017-08-01T02:20:49.503Z,89.91
2017-08-01T02:23:17.127Z,89.83
2017-08-01T02:25:44.801Z,89.49
2017-08-01T02:28:12.417Z,90.08
2017-08-01T02:30:40.080Z,89.92
2017-08-01T02:33:07.759Z,89.55
2017-08-01T02:35:35.376Z,89.79
2017-08-01T02:38:03.001Z,90.03
2017-08-01T02:40:30.697Z,90.03
2017-08-01T02:42:58.315Z,90.10
2017-08-01T02:45:25.932Z,89.95
2017-08-01T02:47:53.610Z,89.05
2017-08-01T02:50:21.444Z,89.46
2017-08-01T02:52:49.057Z,89.91
2017-08-01T02:55:16.741Z,89.64
2017-08-01T02:57:44.410Z,89.16
2017-08-01T03:00:12.256Z,89.21
2017-08-01T03:02:40.250Z,88.99
2017-08-01T03:05:08.065Z,88.94
2017-08-01T03:07:35.760Z,89.38
2017-08-01T03:10:03.521Z,89.33
2017-08-01T03:12:31.493Z,89.00
2017-08-01T03:14:59.410Z,88.62
2017-08-01T03:17:27.370Z,88.66
2017-08-01T03:19:55.320Z,88.53
2017-08-01T03:22:22.926Z,89.00
2017-08-01T03:24:50.570Z,88.66
2017-08-01T03:27:18.190Z,88.65
2017-08-01T03:29:45.796Z,88.61
2017-08-01T03:32:13.519Z,87.69
2017-08-01T03:34:41.188Z,87.32
2017-08-01T03:37:08.846Z,86.90
2017-08-01T03:39:36.502Z,86.31
2017-08-01T03:42:04.124Z,85.85
2017-08-01T03:44:31.750Z,86.00
2017-08-01T03:46:59.429Z,85.53
2017-08-01T03:49:27.050Z,85.25
2017-08-01T03:51:54.751Z,84.43
2017-08-01T03:54:22.755Z,78.27
2017-08-01T03:56:50.362Z,68.66
2017-08-01T03:59:18.038Z,60.41
2017-08-01T04:01:45.957Z,56.91
2017-08-01T04:04:13.579Z,54.76
2017-08-01T04:06:41.193Z,52.88
2017-08-01T04:09:08.862Z,51.50
2017-08-01T04:11:36.471Z,48.57
2017-08-01T04:14:04.092Z,47.69
2017-08-01T04:16:31.775Z,46.42
2017-08-01T04:18:59.385Z,46.41
2017-08-01T04:21:27.009Z,46.34
2017-08-01T04:23:54.655Z,44.09
2017-08-01T04:26:22.269Z,43.04
2017-08-01T04:28:49.875Z,43.49
2017-08-01T04:31:17.567Z,44.06
2017-08-01T04:33:45.236Z,43.46
2017-08-01T04:36:12.877Z,43.02
2017-08-01T04:38:40.535Z,41.88
2017-08-01T04:41:08.154Z,42.17
2017-08-01T04:43:35.763Z,40.95
2017-08-01T04:46:03.428Z,40.06
2017-08-01T04:48:31.044Z,41.39
2017-08-01T04:50:58.668Z,41.79
2017-08-01T04:53:26.339Z,39.85
2017-08-01T04:55:53.962Z,39.26
2017-08-01T04:58:21.590Z,39.31
2017-08-01T05:00:49.261Z,39.29
2017-08-01T05:03:16.890Z,37.12
2017-08-01T05:05:44.507Z,36.95
2017-08-01T05:08:12.178Z,35.46
2017-08-01T05:10:39.792Z,34.43
2017-08-01T05:13:07.425Z,33.92
2017-08-01T05:15:35.199Z,35.80
2017-08-01T05:18:02.838Z,35.63
2017-08-01T05:20:30.494Z,33.61
2017-08-01T05:22:58.195Z,31.70
2017-08-01T05:25:25.812Z,30.72
2017-08-01T05:27:53.427Z,33.18
2017-08-01T05:30:21.124Z,31.06
2017-08-01T05:32:48.734Z,31.20
2017-08-01T05:35:16.402Z,31.49
2017-08-01T05:37:44.069Z,33.68
2017-08-01T05:40:11.688Z,34.45
2017-08-01T05:42:39.294Z,32.93
2017-08-01T05:45:06.971Z,32.08
2017-08-01T05:47:34.587Z,29.95
2017-08-01T05:50:02.235Z,28.18
2017-08-01T05:52:29.954Z,28.61
2017-08-01T05:54:58.446Z,31.58
2017-08-01T05:57:26.474Z,28.87
2017-08-01T05:59:54.224Z,26.88
2017-08-01T06:02:21.868Z,26.77
2017-08-01T06:04:49.537Z,26.78
2017-08-01T06:07:17.233Z,26.49
2017-08-01T06:09:44.858Z,27.47
2017-08-01T06:12:12.484Z,28.87
2017-08-01T06:14:40.169Z,28.41
2017-08-01T06:17:07.789Z,27.89
2017-08-01T06:19:35.403Z,25.97
2017-08-01T06:22:09.160Z,27.74
2017-08-01T06:24:37.151Z,26.33
2017-08-01T06:27:05.018Z,26.46
2017-08-01T06:29:32.885Z,26.26
2017-08-01T06:32:00.629Z,25.65
2017-08-01T06:34:28.500Z,26.19
2017-08-01T06:36:56.415Z,26.79
2017-08-01T06:39:24.281Z,24.49
2017-08-01T06:41:52.144Z,26.53
2017-08-01T06:44:19.969Z,24.88
2017-08-01T06:46:47.572Z,25.80
2017-08-01T06:49:15.222Z,25.46
2017-08-01T06:51:42.940Z,24.59
2017-08-01T06:54:10.912Z,24.45
2017-08-01T06:56:38.620Z,24.94
2017-08-01T06:59:06.621Z,23.48
2017-08-01T07:01:34.568Z,23.81
2017-08-01T07:04:02.229Z,24.13
2017-08-01T07:06:30.142Z,24.85
2017-08-01T07:08:58.168Z,25.71
2017-08-01T07:11:25.733Z,24.84
2017-08-01T07:13:53.401Z,25.39
2017-08-01T07:16:20.963Z,24.02
2017-08-01T07:18:48.532Z,21.64
2017-08-01T07:21:16.249Z,21.93
2017-08-01T07:23:43.994Z,23.14
2017-08-01T07:26:11.859Z,22.88
2017-08-01T07:28:39.873Z,22.13
2017-08-01T07:31:07.595Z,22.58
2017-08-01T07:33:35.609Z,23.16
2017-08-01T07:36:03.679Z,23.07
2017-08-01T07:38:31.648Z,23.39
2017-08-01T07:40:59.621Z,22.84
2017-08-01T07:43:27.551Z,23.80
2017-08-01T07:45:55.400Z,25.67
2017-08-01T07:48:23.221Z,24.79
2017-08-01T07:50:51.234Z,24.67
2017-08-01T07:53:19.076Z,23.39
2017-08-01T07:55:46.921Z,24.04
2017-08-01T07:58:14.892Z,23.09
2017-08-01T08:00:42.762Z,23.85
2017-08-01T08:03:10.470Z,24.04
2017-08-01T08:05:38.494Z,25.35
2017-08-01T08:08:06.432Z,24.61
2017-08-01T08:10:34.006Z,21.83
2017-08-01T08:13:01.618Z,22.50
2017-08-01T08:15:29.180Z,24.66
2017-08-01T08:17:56.747Z,22.18
2017-08-01T08:20:24.389Z,22.46
2017-08-01T08:22:52.333Z,23.22
2017-08-01T08:25:19.994Z,25.46
2017-08-01T08:27:47.921Z,22.26
2017-08-01T08:30:15.935Z,23.59
2017-08-01T08:32:43.777Z,22.93
2017-08-01T08:35:11.821Z,22.50
2017-08-01T08:37:39.640Z,23.50
2017-08-01T08:40:07.809Z,24.78
2017-08-01T08:42:35.854Z,23.96
2017-08-01T08:45:03.717Z,20.90
2017-08-01T08:47:31.415Z,23.47
2017-08-01T08:49:59.482Z,22.81
2017-08-01T08:52:27.246Z,25.74
2017-08-01T08:54:55.060Z,25.45
2017-08-01T08:57:23.081Z,25.42
2017-08-01T08:59:50.796Z,23.29
2017-08-01T09:02:18.613Z,23.64
2017-08-01T09:04:46.537Z,23.36
2017-08-01T09:07:14.522Z,24.93
2017-08-01T09:09:42.266Z,23.22
2017-08-01T09:12:10.284Z,24.31
2017-08-01T09:14:38.002Z,24.93
2017-08-01T09:17:05.849Z,26.17
2017-08-01T09:19:33.714Z,25.99
2017-08-01T09:22:01.546Z,25.50
2017-08-01T09:24:29.415Z,23.16
2017-08-01T09:26:57.412Z,23.61
2017-08-01T09:29:25.254Z,22.60
2017-08-01T09:31:53.121Z,23.90
2017-08-01T09:34:21.038Z,26.18
2017-08-01T09:36:48.930Z,26.17
2017-08-01T09:39:16.936Z,26.21
2017-08-01T09:41:44.790Z,24.65
2017-08-01T09:44:13.184Z,24.29
2017-08-01T09:46:41.026Z,22.58
2017-08-01T09:49:08.806Z,24.40
2017-08-01T09:51:36.537Z,24.25
2017-08-01T09:54:04.339Z,22.74
2017-08-01T09:56:32.070Z,23.06
2017-08-01T09:59:00.012Z,22.66
2017-08-01T10:01:27.779Z,23.87
2017-08-01T10:03:55.748Z,23.49
2017-08-01T10:06:23.456Z,24.34
2017-08-01T10:08:51.530Z,23.17
2017-08-01T10:11:19.299Z,23.47
2017-08-01T10:13:47.241Z,24.63
2017-08-01T10:16:15.058Z,24.11
2017-08-01T10:18:42.900Z,23.86
2017-08-01T10:21:10.661Z,25.26
2017-08-01T10:23:38.662Z,26.54
2017-08-01T10:26:06.455Z,26.45
2017-08-01T10:28:34.466Z,26.51
2017-08-01T10:31:02.536Z,23.05
2017-08-01T10:33:30.403Z,23.84
2017-08-01T10:35:58.064Z,22.31
2017-08-01T10:38:26.112Z,23.92
2017-08-01T10:40:53.853Z,24.93
2017-08-01T10:43:21.827Z,24.18
2017-08-01T10:45:49.592Z,26.23
2017-08-01T10:48:17.460Z,25.39
2017-08-01T10:50:45.279Z,23.02
2017-08-01T10:53:13.136Z,23.52
2017-08-01T10:55:40.800Z,24.90
2017-08-01T10:58:08.488Z,26.24
2017-08-01T11:00:36.370Z,25.09
2017-08-01T11:03:04.188Z,24.55
2017-08-01T11:05:31.907Z,25.24
2017-08-01T11:07:59.897Z,25.46
2017-08-01T11:10:27.791Z,26.15
2017-08-01T11:12:55.509Z,23.93
2017-08-01T11:15:23.526Z,23.26
2017-08-01T11:17:51.365Z,22.74
2017-08-01T11:20:19.263Z,23.23
2017-08-01T11:22:47.178Z,26.18
2017-08-01T11:25:15.143Z,25.39
2017-08-01T11:27:42.864Z,24.07
2017-08-01T11:30:10.560Z,23.36
2017-08-01T11:32:38.392Z,23.34
2017-08-01T11:35:06.053Z,22.91
2017-08-01T11:37:33.958Z,22.91
2017-08-01T11:40:01.626Z,24.56
2017-08-01T11:42:29.242Z,24.43
2017-08-01T11:44:57.680Z,26.95
2017-08-01T11:47:25.592Z,27.01
2017-08-01T11:49:53.444Z,26.22
2017-08-01T11:52:21.509Z,25.92
2017-08-01T11:54:49.252Z,25.34
2017-08-01T11:57:17.263Z,25.71
2017-08-01T11:59:45.339Z,26.44
2017-08-01T12:02:12.999Z,26.63
2017-08-01T12:04:40.659Z,27.13
2017-08-01T12:07:08.515Z,26.40
2017-08-01T12:09:36.124Z,25.39
2017-08-01T12:12:03.737Z,25.77
2017-08-01T12:14:31.414Z,25.74
2017-08-01T12:16:59.287Z,27.32
2017-08-01T12:19:27.100Z,26.08
2017-08-01T12:21:54.913Z,25.61
2017-08-01T12:24:22.641Z,25.56
2017-08-01T12:26:50.505Z,26.01
2017-08-01T12:29:18.492Z,26.01
2017-08-01T12:31:46.175Z,25.74
2017-08-01T12:34:14.007Z,26.20
2017-08-01T12:36:42.110Z,26.38
2017-08-01T12:39:09.942Z,24.16
2017-08-01T12:41:37.663Z,25.38
2017-08-01T12:44:05.404Z,23.69
2017-08-01T12:46:33.172Z,26.17
2017-08-01T12:49:00.833Z,25.31
2017-08-01T12:51:28.754Z,25.29
2017-08-01T12:53:56.622Z,27.51
2017-08-01T12:56:24.488Z,30.90
2017-08-01T12:58:52.355Z,30.72
2017-08-01T13:01:20.222Z,28.48
2017-08-01T13:03:48.186Z,30.48
2017-08-01T13:06:16.008Z,30.72
2017-08-01T13:08:43.699Z,31.40
2017-08-01T13:11:11.540Z,31.81
2017-08-01T13:13:39.297Z,31.09
2017-08-01T13:16:07.150Z,31.23
2017-08-01T13:18:34.994Z,30.90
2017-08-01T13:21:03.105Z,31.71
2017-08-01T13:23:30.769Z,31.97
2017-08-01T13:25:58.475Z,32.21
2017-08-01T13:28:26.487Z,30.51
2017-08-01T13:30:54.330Z,32.06
2017-08-01T13:33:22.150Z,32.53
2017-08-01T13:35:50.089Z,31.13
2017-08-01T13:38:17.932Z,31.29
2017-08-01T13:40:45.798Z,31.54
2017-08-01T13:43:13.492Z,31.36
2017-08-01T13:45:41.210Z,32.38
2017-08-01T13:48:09.222Z,32.70
2017-08-01T13:50:37.091Z,32.16
2017-08-01T13:53:04.811Z,32.79
2017-08-01T13:55:32.639Z,32.45
2017-08-01T13:58:00.694Z,33.12
2017-08-01T14:00:28.537Z,31.88
2017-08-01T14:02:56.398Z,32.05
2017-08-01T14:05:24.499Z,33.20
2017-08-01T14:07:52.165Z,33.05
2017-08-01T14:10:20.027Z,32.57
2017-08-01T14:12:48.101Z,33.10
2017-08-01T14:15:15.764Z,33.33
2017-08-01T14:17:43.834Z,33.18
2017-08-01T14:20:11.707Z,33.23
2017-08-01T14:22:39.358Z,34.79
2017-08-01T14:25:07.032Z,34.55
2017-08-01T14:27:35.101Z,34.24
2017-08-01T14:30:02.801Z,34.74
2017-08-01T14:32:30.410Z,35.61
2017-08-01T14:34:58.897Z,35.23
2017-08-01T14:37:26.622Z,35.09
2017-08-01T14:39:54.428Z,34.87
2017-08-01T14:42:22.453Z,35.68
2017-08-01T14:44:50.273Z,34.95
2017-08-01T14:47:18.135Z,34.91
2017-08-01T14:49:45.898Z,35.41
2017-08-01T14:52:13.549Z,35.23
2017-08-01T14:54:41.267Z,34.21
2017-08-01T14:57:09.160Z,35.38
2017-08-01T14:59:37.158Z,34.25
2017-08-01T15:02:04.825Z,35.44
2017-08-01T15:04:32.486Z,36.33
2017-08-01T15:07:00.322Z,35.67
2017-08-01T15:09:28.013Z,35.30
2017-08-01T15:11:56.012Z,35.45
2017-08-01T15:14:23.609Z,34.91
2017-08-01T15:16:51.473Z,34.64
2017-08-01T15:19:19.306Z,34.75
2017-08-01T15:21:47.131Z,34.24
2017-08-01T15:24:14.807Z,34.37
2017-08-01T15:26:42.453Z,34.17
2017-08-01T15:29:10.341Z,35.69
2017-08-01T15:31:37.997Z,35.14
2017-08-01T15:34:05.656Z,35.27
2017-08-01T15:36:33.322Z,35.18
2017-08-01T15:39:00.985Z,35.73
2017-08-01T15:41:28.845Z,36.04
2017-08-01T15:43:56.439Z,36.61
2017-08-01T15:46:24.033Z,35.75
2017-08-01T15:48:51.682Z,36.11
2017-08-01T15:51:19.289Z,36.49
2017-08-01T15:53:47.039Z,36.52
2017-08-01T15:56:15.059Z,36.38
2017-08-01T15:58:42.967Z,35.81
2017-08-01T16:01:10.752Z,36.72
2017-08-01T16:03:38.426Z,36.70
2017-08-01T16:06:06.087Z,36.86
2017-08-01T16:08:34.080Z,37.08
2017-08-01T16:11:01.815Z,35.75
2017-08-01T16:13:29.479Z,36.62
2017-08-01T16:15:57.082Z,38.56
2017-08-01T16:18:24.748Z,40.16
2017-08-01T16:20:52.386Z,38.79
2017-08-01T16:23:19.983Z,42.31
2017-08-01T16:25:47.932Z,43.01
2017-08-01T16:28:15.529Z,43.83
2017-08-01T16:30:43.133Z,44.53
2017-08-01T16:33:10.911Z,44.04
2017-08-01T16:35:38.528Z,47.18
2017-08-01T16:38:06.137Z,48.57
2017-08-01T16:40:33.959Z,49.74
2017-08-01T16:43:01.628Z,50.50
2017-08-01T16:45:29.347Z,51.17
2017-08-01T16:47:57.158Z,52.16
2017-08-01T16:50:24.853Z,53.27
2017-08-01T16:52:52.461Z,51.82
2017-08-01T16:55:20.118Z,51.53
2017-08-01T16:57:47.709Z,52.50
2017-08-01T17:00:15.324Z,53.68
2017-08-01T17:02:42.992Z,54.71
2017-08-01T17:05:10.614Z,53.63
2017-08-01T17:07:38.228Z,53.58
2017-08-01T17:10:05.894Z,52.58
2017-08-01T17:12:33.565Z,52.38
2017-08-01T17:15:01.425Z,53.77
2017-08-01T17:17:29.513Z,54.61
2017-08-01T17:19:57.171Z,55.77
2017-08-01T17:22:24.879Z,56.53
2017-08-01T17:24:52.546Z,60.34
2017-08-01T17:27:20.575Z,61.07
2017-08-01T17:29:48.233Z,60.60
2017-08-01T17:32:16.269Z,60.78
2017-08-01T17:34:43.969Z,64.44
2017-08-01T17:37:11.626Z,63.63
2017-08-01T17:39:39.345Z,66.60
2017-08-01T17:42:07.341Z,66.29
2017-08-01T17:44:35.028Z,67.03
2017-08-01T17:47:02.873Z,68.19
2017-08-01T17:49:30.966Z,67.30
2017-08-01T17:51:58.687Z,68.53
2017-08-01T17:54:26.499Z,69.20
2017-08-01T17:56:54.520Z,70.27
2017-08-01T17:59:22.339Z,69.21
2017-08-01T18:01:50.274Z,71.05
2017-08-01T18:04:17.954Z,68.69
2017-08-01T18:06:45.689Z,70.67
2017-08-01T18:09:13.695Z,69.29
2017-08-01T18:11:41.557Z,68.58
2017-08-01T18:14:09.221Z,71.09
2017-08-01T18:16:36.884Z,70.66
2017-08-01T18:19:04.957Z,72.81
2017-08-01T18:21:32.606Z,70.45
2017-08-01T18:24:00.328Z,71.62
2017-08-01T18:26:28.173Z,72.38
2017-08-01T18:28:55.816Z,73.59
2017-08-01T18:31:23.473Z,73.21
2017-08-01T18:33:51.341Z,75.22
2017-08-01T18:36:19.017Z,75.57
2017-08-01T18:38:46.663Z,76.46
2017-08-01T18:41:14.342Z,74.44
2017-08-01T18:43:42.271Z,76.58
2017-08-01T18:46:09.877Z,76.74
2017-08-01T18:48:37.751Z,76.27
2017-08-01T18:51:05.693Z,77.13
2017-08-01T18:53:33.288Z,78.07
2017-08-01T18:56:01.182Z,79.11
2017-08-01T18:58:28.985Z,79.32
2017-08-01T19:00:56.714Z,78.88
2017-08-01T19:03:24.387Z,79.37
2017-08-01T19:05:52.008Z,80.02
2017-08-01T19:08:19.632Z,80.12
2017-08-01T19:10:47.358Z,80.08
2017-08-01T19:13:15.120Z,80.14
2017-08-01T19:15:42.752Z,80.01
2017-08-01T19:18:10.556Z,80.37
2017-08-01T19:20:38.176Z,79.93
2017-08-01T19:23:05.893Z,80.34
2017-08-01T19:25:33.878Z,78.53
2017-08-01T19:28:01.535Z,80.48
2017-08-01T19:30:29.438Z,79.81
2017-08-01T19:32:57.160Z,80.52
2017-08-01T19:35:24.781Z,79.65
2017-08-01T19:37:52.396Z,79.04
2017-08-01T19:40:20.113Z,79.19
2017-08-01T19:42:47.723Z,78.60
2017-08-01T19:45:15.319Z,79.16
2017-08-01T19:47:43.002Z,78.96
2017-08-01T19:50:10.600Z,78.82
2017-08-01T19:52:38.184Z,79.47
2017-08-01T19:55:05.965Z,79.78
2017-08-01T19:57:33.586Z,79.95
2017-08-01T20:00:01.212Z,80.33
2017-08-01T20:02:29.017Z,81.99
2017-08-01T20:04:56.686Z,82.04
2017-08-01T20:07:24.578Z,82.22
2017-08-01T20:09:52.415Z,82.81
2017-08-01T20:12:20.481Z,82.89
2017-08-01T20:14:48.109Z,83.33
2017-08-01T20:17:15.763Z,83.71
2017-08-01T20:19:43.397Z,83.78
2017-08-01T20:22:11.031Z,84.10
2017-08-01T20:24:38.705Z,84.53
2017-08-01T20:27:06.661Z,84.93
2017-08-01T20:29:34.317Z,85.06
2017-08-01T20:32:01.997Z,84.85
2017-08-01T20:34:29.625Z,84.77
2017-08-01T20:36:57.272Z,84.96
2017-08-01T20:39:24.937Z,85.45
2017-08-01T20:41:52.532Z,85.39
2017-08-01T20:44:20.147Z,85.62
2017-08-01T20:46:47.845Z,85.41
2017-08-01T20:49:15.464Z,85.83
2017-08-01T20:51:43.079Z,86.44
2017-08-01T20:54:10.878Z,86.20
2017-08-01T20:56:38.573Z,86.88
2017-08-01T20:59:06.208Z,85.28
2017-08-01T21:01:33.815Z,84.78
2017-08-01T21:04:01.489Z,86.10
2017-08-01T21:06:29.149Z,86.31
2017-08-01T21:08:56.741Z,86.31
2017-08-01T21:11:24.395Z,84.97
2017-08-01T21:13:51.985Z,84.92
2017-08-01T21:16:19.588Z,85.47
2017-08-01T21:18:47.227Z,85.49
2017-08-01T21:21:14.827Z,85.28
2017-08-01T21:23:42.448Z,85.17
2017-08-01T21:26:10.134Z,85.59
2017-08-01T21:28:37.718Z,85.28
2017-08-01T21:31:05.325Z,85.78
2017-08-01T21:33:32.974Z,85.89
2017-08-01T21:36:00.590Z,86.00
2017-08-01T21:38:28.281Z,86.30
2017-08-01T21:40:55.945Z,86.12
2017-08-01T21:43:23.574Z,86.15
2017-08-01T21:45:51.185Z,85.78
2017-08-01T21:48:18.855Z,85.76
2017-08-01T21:50:46.457Z,86.01
2017-08-01T21:53:14.088Z,86.32
2017-08-01T21:55:41.741Z,86.71
2017-08-01T21:58:09.341Z,86.76
2017-08-01T22:00:36.972Z,86.33
2017-08-01T22:03:04.664Z,86.55
2017-08-01T22:05:32.274Z,86.61
2017-08-01T22:07:59.879Z,87.00
2017-08-01T22:10:27.546Z,87.09
2017-08-01T22:12:55.170Z,86.92
2017-08-01T22:15:22.840Z,87.07
2017-08-01T22:17:50.557Z,87.47
2017-08-01T22:20:18.153Z,87.89
2017-08-01T22:22:45.846Z,87.30
2017-08-01T22:25:13.523Z,87.66
2017-08-01T22:27:41.119Z,87.77
2017-08-01T22:30:08.768Z,88.12
2017-08-01T22:32:36.451Z,88.08
2017-08-01T22:35:04.061Z,87.88
2017-08-01T22:37:31.681Z,88.23
2017-08-01T22:39:59.388Z,87.97
2017-08-01T22:42:27.012Z,87.77
2017-08-01T22:44:54.632Z,88.02
2017-08-01T22:47:22.285Z,88.47
2017-08-01T22:49:49.894Z,88.25
2017-08-01T22:52:17.506Z,87.80
2017-08-01T22:54:45.228Z,88.33
2017-08-01T22:57:12.841Z,88.83
2017-08-01T22:59:40.479Z,88.91
2017-08-01T23:02:08.154Z,89.00
2017-08-01T23:04:35.770Z,88.97
2017-08-01T23:07:03.381Z,88.71
2017-08-01T23:09:31.045Z,88.80
2017-08-01T23:11:58.667Z,88.69
2017-08-01T23:14:26.281Z,88.58
2017-08-01T23:16:54.695Z,88.45
2017-08-01T23:19:22.310Z,88.57
2017-08-01T23:21:49.936Z,88.98
2017-08-01T23:24:17.677Z,88.78
2017-08-01T23:26:45.287Z,87.92
2017-08-01T23:29:12.926Z,88.52
2017-08-01T23:31:40.589Z,88.73
2017-08-01T23:34:08.194Z,88.73
2017-08-01T23:36:35.813Z,88.92
2017-08-01T23:39:03.546Z,88.50
2017-08-01T23:41:31.353Z,88.77
2017-08-01T23:43:58.962Z,89.15
2017-08-01T23:46:26.626Z,89.10
2017-08-01T23:48:54.248Z,88.83
2017-08-01T23:51:21.867Z,88.98
2017-08-01T23:53:49.550Z,89.01
2017-08-01T23:56:17.177Z,89.01
2017-08-01T23:58:44.814Z,88.84
